createdAt,value
2023-05-21T00:00:28.005Z,4
2023-05-21T00:02:25.458Z,2
2023-05-21T00:04:25.207Z,4
2023-05-21T00:08:25.180Z,3
2023-05-21T00:10:25.047Z,4
2023-05-21T00:12:24.810Z,4
2023-05-21T00:14:25.494Z,3
2023-05-21T00:16:25.064Z,4
2023-05-21T00:18:24.672Z,4
2023-05-21T00:20:25.356Z,0
2023-05-21T00:22:24.634Z,4
2023-05-21T00:24:25.390Z,4
2023-05-21T00:26:25.154Z,3
2023-05-21T00:28:24.710Z,4
2023-05-21T00:30:25.414Z,4
2023-05-21T00:32:25.590Z,1
2023-05-21T00:34:25.374Z,4
2023-05-21T00:36:24.954Z,4
2023-05-21T00:38:24.474Z,4
2023-05-21T00:40:25.380Z,2
2023-05-21T00:42:24.890Z,2
2023-05-21T00:44:24.578Z,2
2023-05-21T00:46:25.399Z,2
2023-05-21T00:48:24.901Z,2
2023-05-21T00:50:24.628Z,1
2023-05-21T00:52:25.095Z,2
2023-05-21T00:54:24.839Z,2
2023-05-21T00:56:25.292Z,1
2023-05-21T00:58:25.010Z,2
2023-05-21T01:00:26.592Z,2
2023-05-21T01:02:25.460Z,1
2023-05-21T01:04:24.795Z,2
2023-05-21T01:06:25.260Z,2
2023-05-21T01:08:24.770Z,4
2023-05-21T01:10:24.610Z,5
2023-05-21T01:12:25.024Z,5
2023-05-21T01:14:24.700Z,3
2023-05-21T01:16:25.359Z,2
2023-05-21T01:18:25.094Z,2
2023-05-21T01:20:24.958Z,1
2023-05-21T01:22:24.455Z,2
2023-05-21T01:24:25.135Z,2
2023-05-21T01:26:24.686Z,1
2023-05-21T01:28:25.136Z,4
2023-05-21T01:30:24.857Z,4
2023-05-21T01:32:24.568Z,3
2023-05-21T01:34:25.517Z,4
2023-05-21T01:36:24.592Z,4
2023-05-21T01:38:25.512Z,3
2023-05-21T01:40:24.942Z,2
2023-05-21T01:42:25.434Z,2
2023-05-21T01:44:24.920Z,3
2023-05-21T01:46:24.640Z,4
2023-05-21T01:48:25.299Z,4
2023-05-21T01:50:25.174Z,3
2023-05-21T01:52:24.557Z,2
2023-05-21T01:54:25.090Z,2
2023-05-21T01:56:24.593Z,1
2023-05-21T01:58:25.776Z,4
2023-05-21T02:00:32.088Z,4
2023-05-21T02:02:25.426Z,3
2023-05-21T02:04:25.072Z,4
2023-05-21T02:06:25.173Z,4
2023-05-21T02:08:24.802Z,3
2023-05-21T02:10:25.568Z,4
2023-05-21T02:12:25.101Z,4
2023-05-21T02:14:24.602Z,3
2023-05-21T02:16:25.411Z,4
2023-05-21T02:18:25.045Z,4
2023-05-21T02:20:25.599Z,3
2023-05-21T02:22:25.033Z,4
2023-05-21T02:24:24.597Z,4
2023-05-21T02:26:25.328Z,1
2023-05-21T02:28:24.867Z,2
2023-05-21T02:30:24.706Z,2
2023-05-21T02:32:25.200Z,1
2023-05-21T02:34:24.970Z,2
2023-05-21T02:36:25.419Z,2
2023-05-21T02:38:25.293Z,2
2023-05-21T02:40:24.882Z,2
2023-05-21T02:42:24.427Z,2
2023-05-21T02:44:25.101Z,2
2023-05-21T02:46:25.055Z,2
2023-05-21T02:48:25.658Z,3
2023-05-21T02:50:25.398Z,3
2023-05-21T02:52:25.205Z,3
2023-05-21T02:54:24.641Z,4
2023-05-21T02:56:25.394Z,4
2023-05-21T02:58:24.840Z,4
2023-05-21T03:00:26.777Z,1
2023-05-21T03:02:25.299Z,3
2023-05-21T03:04:24.631Z,3
2023-05-21T03:06:25.167Z,2
2023-05-21T03:08:24.768Z,2
2023-05-21T03:10:25.553Z,2
2023-05-21T03:12:25.068Z,1
2023-05-21T03:14:24.727Z,4
2023-05-21T03:16:25.329Z,4
2023-05-21T03:18:25.142Z,1
2023-05-21T03:20:25.601Z,2
2023-05-21T03:22:25.188Z,2
2023-05-21T03:24:24.761Z,1
2023-05-21T03:26:25.408Z,1
2023-05-21T03:28:24.956Z,1
2023-05-21T03:30:24.658Z,1
2023-05-21T03:32:25.678Z,2
2023-05-21T03:34:24.880Z,2
2023-05-21T03:36:24.492Z,3
2023-05-21T03:38:24.907Z,4
2023-05-21T03:40:25.425Z,4
2023-05-21T03:42:24.896Z,3
2023-05-21T03:44:25.435Z,2
2023-05-21T03:46:25.137Z,2
2023-05-21T03:48:24.738Z,3
2023-05-21T03:50:25.481Z,4
2023-05-21T03:52:25.069Z,4
2023-05-21T03:54:24.721Z,3
2023-05-21T03:56:25.275Z,5
2023-05-21T03:58:25.043Z,5
2023-05-21T04:00:27.910Z,1
2023-05-21T04:02:25.458Z,2
2023-05-21T04:04:25.409Z,2
2023-05-21T04:06:24.815Z,3
2023-05-21T04:08:25.383Z,1
2023-05-21T04:10:25.290Z,1
2023-05-21T04:12:24.940Z,1
2023-05-21T04:14:25.353Z,3
2023-05-21T04:16:25.217Z,3
2023-05-21T04:18:24.628Z,1
2023-05-21T04:20:25.295Z,3
2023-05-21T04:22:24.749Z,3
2023-05-21T04:24:24.449Z,1
2023-05-21T04:26:25.111Z,5
2023-05-21T04:28:24.881Z,5
2023-05-21T04:30:25.503Z,1
2023-05-21T04:32:25.212Z,4
2023-05-21T04:34:24.760Z,4
2023-05-21T04:36:25.454Z,4
2023-05-21T04:38:27.298Z,4
2023-05-21T04:40:24.560Z,4
2023-05-21T04:42:25.139Z,1
2023-05-21T04:44:24.820Z,3
2023-05-21T04:46:24.476Z,3
2023-05-21T04:48:25.265Z,3
2023-05-21T04:50:24.867Z,3
2023-05-21T04:52:24.540Z,3
2023-05-21T04:54:25.215Z,3
2023-05-21T04:56:24.806Z,4
2023-05-21T04:58:25.468Z,4
2023-05-21T05:00:30.895Z,5
2023-05-21T05:02:25.445Z,5
2023-05-21T05:04:25.053Z,5
2023-05-21T05:06:24.562Z,3
2023-05-21T05:08:27.715Z,4
2023-05-21T05:10:24.970Z,4
2023-05-21T05:12:24.704Z,4
2023-05-21T05:14:25.399Z,4
2023-05-21T05:16:25.472Z,4
2023-05-21T05:18:24.633Z,3
2023-05-21T05:20:25.418Z,3
2023-05-21T05:22:25.336Z,3
2023-05-21T05:24:25.424Z,4
2023-05-21T05:26:25.028Z,3
2023-05-21T05:28:24.623Z,3
2023-05-21T05:30:25.720Z,3
2023-05-21T05:32:24.875Z,5
2023-05-21T05:34:24.521Z,5
2023-05-21T05:36:25.286Z,3
2023-05-21T05:38:24.730Z,4
2023-05-21T05:40:24.665Z,4
2023-05-21T05:42:25.174Z,3
2023-05-21T05:44:24.806Z,4
2023-05-21T05:46:25.507Z,4
2023-05-21T05:48:25.074Z,4
2023-05-21T05:50:24.810Z,4
2023-05-21T05:52:25.304Z,4
2023-05-21T05:54:24.951Z,3
2023-05-21T05:56:25.469Z,4
2023-05-21T05:58:25.025Z,4
2023-05-21T06:00:29.188Z,3
2023-05-21T06:02:25.511Z,3
2023-05-21T06:04:25.096Z,3
2023-05-21T06:06:24.778Z,4
2023-05-21T06:08:25.340Z,4
2023-05-21T06:10:25.008Z,4
2023-05-21T06:12:26.663Z,4
2023-05-21T06:14:24.971Z,4
2023-05-21T06:16:25.557Z,4
2023-05-21T06:18:25.174Z,3
2023-05-21T06:20:24.794Z,4
2023-05-21T06:22:25.691Z,4
2023-05-21T06:24:24.645Z,3
2023-05-21T06:26:25.143Z,2
2023-05-21T06:28:24.766Z,2
2023-05-21T06:30:24.745Z,3
2023-05-21T06:32:25.331Z,2
2023-05-21T06:34:25.108Z,2
2023-05-21T06:36:25.380Z,1
2023-05-21T06:38:25.036Z,4
2023-05-21T06:40:24.855Z,4
2023-05-21T06:42:25.400Z,3
2023-05-21T06:44:24.942Z,5
2023-05-21T06:46:24.692Z,5
2023-05-21T06:48:25.062Z,4
2023-05-21T06:50:24.776Z,4
2023-05-21T06:52:25.315Z,4
2023-05-21T06:54:26.818Z,1
2023-05-21T06:56:25.264Z,4
2023-05-21T06:58:25.036Z,4
2023-05-21T07:00:28.744Z,4
2023-05-21T07:04:24.989Z,4
2023-05-21T07:06:24.760Z,4
2023-05-21T07:08:25.231Z,7
2023-05-21T07:10:25.132Z,7
2023-05-21T07:12:24.605Z,3
2023-05-21T07:14:25.289Z,5
2023-05-21T07:16:24.741Z,5
2023-05-21T07:18:25.257Z,4
2023-05-21T07:20:24.997Z,5
2023-05-21T07:22:27.935Z,5
2023-05-21T07:24:24.784Z,3
2023-05-21T07:26:24.586Z,5
2023-05-21T07:30:24.978Z,4
2023-05-21T07:32:24.470Z,4
2023-05-21T07:34:25.093Z,4
2023-05-21T07:36:24.827Z,3
2023-05-21T07:38:25.400Z,5
2023-05-21T07:40:25.065Z,5
2023-05-21T07:42:25.528Z,3
2023-05-21T07:44:24.889Z,5
2023-05-21T07:46:25.504Z,5
2023-05-21T07:48:25.034Z,3
2023-05-21T07:50:25.555Z,4
2023-05-21T07:52:24.847Z,4
2023-05-21T07:54:25.425Z,4
2023-05-21T07:56:24.890Z,5
2023-05-21T07:58:25.225Z,5
2023-05-21T08:00:28.700Z,4
2023-05-21T08:02:25.088Z,5
2023-05-21T08:04:25.484Z,5
2023-05-21T08:06:25.435Z,3
2023-05-21T08:08:24.870Z,4
2023-05-21T08:10:29.298Z,4
2023-05-21T08:12:24.715Z,6
2023-05-21T08:14:25.457Z,5
2023-05-21T08:16:25.210Z,5
2023-05-21T08:18:25.509Z,3
2023-05-21T08:20:25.080Z,10
2023-05-21T08:22:24.592Z,10
2023-05-21T08:24:25.170Z,7
2023-05-21T08:26:24.643Z,7
2023-05-21T08:28:25.152Z,7
2023-05-21T08:30:25.044Z,4
2023-05-21T08:32:25.794Z,10
2023-05-21T08:34:24.873Z,10
2023-05-21T08:36:24.560Z,9
2023-05-21T08:38:25.127Z,7
2023-05-21T08:40:24.901Z,7
2023-05-21T08:42:37.819Z,7
2023-05-21T08:46:25.586Z,10
2023-05-21T08:48:24.994Z,6
2023-05-21T08:50:25.665Z,10
2023-05-21T08:52:25.122Z,10
2023-05-21T08:56:25.250Z,10
2023-05-21T08:58:25.090Z,10
2023-05-21T09:00:28.771Z,7
2023-05-21T09:02:25.327Z,11
2023-05-21T09:04:43.765Z,11
2023-05-21T09:06:24.521Z,9
2023-05-21T09:08:24.774Z,10
2023-05-21T09:10:25.348Z,10
2023-05-21T09:12:24.862Z,6
2023-05-21T09:14:25.161Z,8
2023-05-21T09:16:24.860Z,8
2023-05-21T09:18:25.659Z,10
2023-05-21T09:20:25.146Z,11
2023-05-21T09:22:24.556Z,11
2023-05-21T09:24:25.173Z,9
2023-05-21T09:26:24.636Z,16
2023-05-21T09:28:25.372Z,16
2023-05-21T09:30:28.686Z,7
2023-05-21T09:32:25.417Z,11
2023-05-21T09:34:25.020Z,11
2023-05-21T09:36:24.564Z,7
2023-05-21T09:40:24.810Z,13
2023-05-21T09:42:25.407Z,9
2023-05-21T09:44:24.797Z,10
2023-05-21T09:46:25.409Z,10
2023-05-21T09:48:25.207Z,12
2023-05-21T09:50:24.946Z,14
2023-05-21T09:52:25.284Z,14
2023-05-21T09:54:25.069Z,10
2023-05-21T09:56:24.901Z,11
2023-05-21T09:58:25.310Z,11
2023-05-21T10:00:28.746Z,9
2023-05-21T10:02:25.366Z,12
2023-05-21T10:04:25.083Z,12
2023-05-21T10:06:25.502Z,9
2023-05-21T10:08:25.217Z,13
2023-05-21T10:10:24.790Z,13
2023-05-21T10:12:24.531Z,12
2023-05-21T10:14:24.984Z,8
2023-05-21T10:16:24.841Z,8
2023-05-21T10:18:25.214Z,9
2023-05-21T10:20:24.829Z,10
2023-05-21T10:22:25.260Z,10
2023-05-21T10:24:24.867Z,4
2023-05-21T10:26:25.328Z,10
2023-05-21T10:28:25.044Z,10
2023-05-21T10:30:25.590Z,6
2023-05-21T10:32:25.075Z,6
2023-05-21T10:34:24.509Z,6
2023-05-21T10:36:25.356Z,5
2023-05-21T10:38:24.809Z,8
2023-05-21T10:40:25.496Z,8
2023-05-21T10:42:24.893Z,7
2023-05-21T10:44:24.575Z,10
2023-05-21T10:46:25.478Z,10
2023-05-21T10:48:24.857Z,5
2023-05-21T10:50:25.481Z,10
2023-05-21T10:52:24.694Z,10
2023-05-21T10:54:25.240Z,4
2023-05-21T10:56:24.993Z,9
2023-05-21T10:58:25.436Z,9
2023-05-21T11:00:27.980Z,8
2023-05-21T11:02:24.889Z,11
2023-05-21T11:04:24.572Z,11
2023-05-21T11:06:25.233Z,7
2023-05-21T11:08:24.671Z,5
2023-05-21T11:10:25.499Z,5
2023-05-21T11:12:24.688Z,8
2023-05-21T11:14:25.053Z,9
2023-05-21T11:16:24.537Z,9
2023-05-21T11:18:25.264Z,4
2023-05-21T11:20:24.773Z,6
2023-05-21T11:22:25.387Z,6
2023-05-21T11:24:25.035Z,8
2023-05-21T11:26:25.206Z,10
2023-05-21T11:28:24.872Z,10
2023-05-21T11:30:25.541Z,5
2023-05-21T11:32:24.937Z,5
2023-05-21T11:34:24.570Z,5
2023-05-21T11:36:25.042Z,6
2023-05-21T11:38:24.443Z,9
2023-05-21T11:40:25.342Z,9
2023-05-21T11:42:27.681Z,4
2023-05-21T11:44:24.554Z,9
2023-05-21T11:46:25.236Z,9
2023-05-21T11:48:27.284Z,2
2023-05-21T11:50:25.055Z,7
2023-05-21T11:52:24.786Z,7
2023-05-21T11:54:25.174Z,5
2023-05-21T11:56:24.934Z,7
2023-05-21T11:58:25.341Z,7
2023-05-21T12:00:31.516Z,4
2023-05-21T12:02:24.608Z,5
2023-05-21T12:04:25.603Z,5
2023-05-21T12:08:25.211Z,8
2023-05-21T12:10:25.079Z,8
2023-05-21T12:12:24.448Z,7
2023-05-21T12:14:25.230Z,7
2023-05-21T12:16:24.621Z,7
2023-05-21T12:18:25.303Z,7
2023-05-21T12:20:24.975Z,8
2023-05-21T12:22:25.443Z,8
2023-05-21T12:24:25.015Z,2
2023-05-21T12:26:25.426Z,8
2023-05-21T12:28:25.104Z,8
2023-05-21T12:30:24.877Z,5
2023-05-21T12:32:25.553Z,7
2023-05-21T12:34:24.891Z,7
2023-05-21T12:36:24.602Z,4
2023-05-21T12:38:25.026Z,7
2023-05-21T12:40:24.741Z,7
2023-05-21T12:42:25.200Z,7
2023-05-21T12:44:24.732Z,8
2023-05-21T12:46:25.407Z,8
2023-05-21T12:48:25.184Z,8
2023-05-21T12:50:25.731Z,8
2023-05-21T12:52:25.112Z,8
2023-05-21T12:54:24.797Z,8
2023-05-21T12:56:25.287Z,7
2023-05-21T12:58:24.788Z,7
2023-05-21T13:00:30.456Z,7
2023-05-21T13:02:25.099Z,7
2023-05-21T13:04:25.717Z,7
2023-05-21T13:06:25.026Z,7
2023-05-21T13:08:24.570Z,9
2023-05-21T13:10:25.449Z,9
2023-05-21T13:12:24.930Z,9
2023-05-21T13:14:24.830Z,12
2023-05-21T13:16:25.548Z,12
2023-05-21T13:18:25.063Z,12
2023-05-21T13:20:24.769Z,9
2023-05-21T13:22:25.155Z,9
2023-05-21T13:24:24.709Z,9
2023-05-21T13:26:25.472Z,7
2023-05-21T13:28:24.875Z,7
2023-05-21T13:30:24.964Z,7
2023-05-21T13:32:25.674Z,9
2023-05-21T13:34:27.972Z,9
2023-05-21T13:36:24.760Z,9
2023-05-21T13:38:25.494Z,11
2023-05-21T13:40:25.052Z,11
2023-05-21T13:42:24.498Z,11
2023-05-21T13:44:25.028Z,8
2023-05-21T13:46:24.676Z,8
2023-05-21T13:48:25.168Z,8
2023-05-21T13:50:24.939Z,8
2023-05-21T13:54:24.620Z,8
2023-05-21T13:56:25.250Z,9
2023-05-21T13:58:24.871Z,9
2023-05-21T14:00:29.171Z,9
2023-05-21T14:02:25.453Z,8
2023-05-21T14:04:25.003Z,8
2023-05-21T14:06:24.518Z,8
2023-05-21T14:08:24.961Z,9
2023-05-21T14:10:25.585Z,9
2023-05-21T14:12:26.881Z,9
2023-05-21T14:16:25.440Z,8
2023-05-21T14:18:24.924Z,8
2023-05-21T14:20:25.498Z,8
2023-05-21T14:22:24.873Z,8
2023-05-21T14:24:25.399Z,8
2023-05-21T14:26:24.902Z,7
2023-05-21T14:28:24.500Z,7
2023-05-21T14:30:25.275Z,7
2023-05-21T14:32:24.952Z,8
2023-05-21T14:34:25.224Z,8
2023-05-21T14:36:24.755Z,8
2023-05-21T14:38:25.261Z,7
2023-05-21T14:40:25.258Z,7
2023-05-21T14:42:25.469Z,7
2023-05-21T14:44:25.271Z,10
2023-05-21T14:48:25.423Z,10
2023-05-21T14:50:25.168Z,8
2023-05-21T14:52:24.502Z,8
2023-05-21T14:54:25.256Z,8
2023-05-21T14:56:24.773Z,11
2023-05-21T14:58:25.342Z,11
2023-05-21T15:00:28.015Z,11
2023-05-21T15:02:24.867Z,8
2023-05-21T15:04:25.975Z,8
2023-05-21T15:06:24.909Z,8
2023-05-21T15:08:25.524Z,10
2023-05-21T15:10:26.384Z,10
2023-05-21T15:12:24.675Z,10
2023-05-21T15:14:25.180Z,5
2023-05-21T15:16:25.187Z,5
2023-05-21T15:18:25.459Z,5
2023-05-21T15:20:25.211Z,5
2023-05-21T15:22:24.511Z,5
2023-05-21T15:26:24.634Z,10
2023-05-21T15:28:25.181Z,10
2023-05-21T15:30:25.180Z,10
2023-05-21T15:32:25.368Z,8
2023-05-21T15:34:25.003Z,8
2023-05-21T15:36:24.681Z,8
2023-05-21T15:38:25.138Z,7
2023-05-21T15:40:27.271Z,7
2023-05-21T15:42:25.464Z,7
2023-05-21T15:44:24.983Z,7
2023-05-21T15:46:24.628Z,7
2023-05-21T15:48:25.080Z,7
2023-05-21T15:50:25.581Z,7
2023-05-21T15:52:25.101Z,7
2023-05-21T15:54:24.746Z,7
2023-05-21T15:56:25.243Z,7
2023-05-21T15:58:25.832Z,7
2023-05-21T16:00:28.397Z,7
2023-05-21T16:02:25.013Z,7
2023-05-21T16:04:24.931Z,7
2023-05-21T16:06:25.362Z,7
2023-05-21T16:08:24.689Z,9
2023-05-21T16:10:25.361Z,9
2023-05-21T16:12:24.845Z,9
2023-05-21T16:14:24.473Z,9
2023-05-21T16:16:25.083Z,9
2023-05-21T16:18:24.703Z,9
2023-05-21T16:20:25.199Z,5
2023-05-21T16:22:24.627Z,5
2023-05-21T16:24:25.126Z,5
2023-05-21T16:26:24.520Z,8
2023-05-21T16:28:25.023Z,8
2023-05-21T16:32:25.980Z,7
2023-05-21T16:34:24.868Z,7
2023-05-21T16:36:24.616Z,7
2023-05-21T16:38:24.970Z,6
2023-05-21T16:40:24.762Z,6
2023-05-21T16:42:25.203Z,6
2023-05-21T16:44:24.746Z,9
2023-05-21T16:46:25.379Z,9
2023-05-21T16:48:24.893Z,9
2023-05-21T16:50:25.630Z,7
2023-05-21T16:52:25.056Z,7
2023-05-21T16:54:24.621Z,7
2023-05-21T16:56:25.119Z,11
2023-05-21T16:58:24.800Z,11
2023-05-21T17:00:28.579Z,11
2023-05-21T17:02:25.154Z,7
2023-05-21T17:04:25.252Z,7
2023-05-21T17:06:25.440Z,7
2023-05-21T17:08:24.776Z,8
2023-05-21T17:10:25.501Z,8
2023-05-21T17:12:24.935Z,8
2023-05-21T17:14:33.891Z,4
2023-05-21T17:16:25.300Z,4
2023-05-21T17:18:24.966Z,4
2023-05-21T17:20:25.284Z,8
2023-05-21T17:22:24.750Z,8
2023-05-21T17:24:25.399Z,8
2023-05-21T17:26:25.006Z,5
2023-05-21T17:28:24.793Z,5
2023-05-21T17:30:25.260Z,5
2023-05-21T17:32:24.614Z,10
2023-05-21T17:34:25.230Z,10
2023-05-21T17:36:25.085Z,10
2023-05-21T17:38:24.778Z,4
2023-05-21T17:40:25.616Z,4
2023-05-21T17:42:25.134Z,4
2023-05-21T17:44:24.824Z,9
2023-05-21T17:46:25.195Z,9
2023-05-21T17:48:24.892Z,9
2023-05-21T17:50:25.443Z,7
2023-05-21T17:52:24.960Z,7
2023-05-21T17:54:24.423Z,7
2023-05-21T17:56:25.017Z,10
2023-05-21T17:58:24.588Z,10
2023-05-21T18:00:28.558Z,10
2023-05-21T18:02:24.690Z,8
2023-05-21T18:04:25.524Z,8
2023-05-21T18:06:24.764Z,8
2023-05-21T18:08:25.204Z,7
2023-05-21T18:10:24.983Z,7
2023-05-21T18:12:25.347Z,7
2023-05-21T18:14:25.055Z,8
2023-05-21T18:16:25.562Z,8
2023-05-21T18:18:25.219Z,8
2023-05-21T18:20:24.746Z,15
2023-05-21T18:22:25.252Z,15
2023-05-21T18:24:24.909Z,15
2023-05-21T18:26:25.420Z,12
2023-05-21T18:28:24.892Z,12
2023-05-21T18:30:24.590Z,12
2023-05-21T18:32:25.540Z,12
2023-05-21T18:34:24.841Z,12
2023-05-21T18:38:24.869Z,9
2023-05-21T18:40:24.892Z,9
2023-05-21T18:42:36.682Z,9
2023-05-21T18:44:24.579Z,9
2023-05-21T18:46:25.451Z,9
2023-05-21T18:48:24.933Z,9
2023-05-21T18:50:25.438Z,13
2023-05-21T18:52:25.029Z,13
2023-05-21T18:54:24.526Z,13
2023-05-21T18:56:24.916Z,7
2023-05-21T18:58:24.584Z,7
2023-05-21T19:00:30.658Z,7
2023-05-21T19:02:25.270Z,7
2023-05-21T19:04:24.746Z,7
2023-05-21T19:06:24.630Z,7
2023-05-21T19:08:25.020Z,9
2023-05-21T19:10:24.964Z,9
2023-05-21T19:12:24.498Z,9
2023-05-21T19:14:24.974Z,10
2023-05-21T19:16:25.890Z,10
2023-05-21T19:18:25.041Z,10
2023-05-21T19:20:25.616Z,10
2023-05-21T19:22:24.978Z,10
2023-05-21T19:24:28.456Z,10
2023-05-21T19:26:25.136Z,9
2023-05-21T19:28:24.858Z,9
2023-05-21T19:30:24.677Z,9
2023-05-21T19:32:25.110Z,9
2023-05-21T19:34:24.960Z,9
2023-05-21T19:36:25.314Z,9
2023-05-21T19:38:28.446Z,9
2023-05-21T19:40:24.644Z,9
2023-05-21T19:42:25.058Z,9
2023-05-21T19:44:24.640Z,12
2023-05-21T19:46:28.817Z,12
2023-05-21T19:48:24.784Z,12
2023-05-21T19:50:25.557Z,12
2023-05-21T19:52:24.933Z,12
2023-05-21T19:54:24.572Z,12
2023-05-21T19:56:25.310Z,10
2023-05-21T19:58:24.887Z,10
2023-05-21T20:00:28.562Z,10
2023-05-21T20:02:25.204Z,9
2023-05-21T20:04:25.231Z,9
2023-05-21T20:06:25.198Z,9
2023-05-21T20:08:24.920Z,7
2023-05-21T20:10:25.461Z,7
2023-05-21T20:12:24.837Z,7
2023-05-21T20:14:25.350Z,6
2023-05-21T20:16:25.159Z,6
2023-05-21T20:18:24.872Z,6
2023-05-21T20:20:25.372Z,7
2023-05-21T20:22:24.858Z,7
2023-05-21T20:24:25.452Z,7
2023-05-21T20:26:24.839Z,7
2023-05-21T20:28:25.471Z,7
2023-05-21T20:30:25.384Z,7
2023-05-21T20:32:24.916Z,7
2023-05-21T20:34:25.285Z,7
2023-05-21T20:38:25.214Z,6
2023-05-21T20:40:26.648Z,6
2023-05-21T20:42:24.665Z,6
2023-05-21T20:44:25.268Z,6
2023-05-21T20:46:24.981Z,6
2023-05-21T20:48:24.633Z,6
2023-05-21T20:50:25.326Z,4
2023-05-21T20:52:24.852Z,4
2023-05-21T20:54:24.454Z,4
2023-05-21T20:56:40.136Z,7
2023-05-21T20:58:24.785Z,7
2023-05-21T21:00:30.947Z,7
2023-05-21T21:02:25.137Z,7
2023-05-21T21:04:24.816Z,7
2023-05-21T21:06:25.228Z,7
2023-05-21T21:08:24.666Z,6
2023-05-21T21:10:25.511Z,6
2023-05-21T21:12:44.487Z,6
2023-05-21T21:14:24.520Z,6
2023-05-21T21:16:25.310Z,6
2023-05-21T21:18:24.726Z,6
2023-05-21T21:20:25.344Z,10
2023-05-21T21:22:24.933Z,10
2023-05-21T21:24:24.476Z,10
2023-05-21T21:26:25.161Z,4
2023-05-21T21:28:24.749Z,4
2023-05-21T21:30:24.632Z,4
2023-05-21T21:32:25.263Z,5
2023-05-21T21:34:25.247Z,5
2023-05-21T21:36:24.593Z,5
2023-05-21T21:38:25.266Z,2
2023-05-21T21:40:25.180Z,2
2023-05-21T21:42:24.501Z,2
2023-05-21T21:44:25.099Z,7
2023-05-21T21:46:24.876Z,7
2023-05-21T21:48:25.397Z,7
2023-05-21T21:50:24.994Z,7
2023-05-21T21:52:24.559Z,7
2023-05-21T21:54:25.234Z,7
2023-05-21T21:56:24.856Z,4
2023-05-21T21:58:25.373Z,4
2023-05-21T22:00:37.544Z,4
2023-05-21T22:02:25.022Z,7
2023-05-21T22:06:25.056Z,7
2023-05-21T22:08:24.730Z,7
2023-05-21T22:10:25.531Z,7
2023-05-21T22:12:25.054Z,7
2023-05-21T22:14:24.704Z,6
2023-05-21T22:16:25.406Z,6
2023-05-21T22:18:38.809Z,6
2023-05-21T22:22:25.118Z,5
2023-05-21T22:24:42.154Z,5
2023-05-21T22:26:25.260Z,5
2023-05-21T22:28:25.000Z,5
2023-05-21T22:30:24.697Z,5
2023-05-21T22:32:25.023Z,6
2023-05-21T22:34:24.653Z,6
2023-05-21T22:36:25.228Z,6
2023-05-21T22:38:24.756Z,6
2023-05-21T22:40:25.563Z,6
2023-05-21T22:42:25.248Z,6
2023-05-21T22:44:24.709Z,6
2023-05-21T22:46:25.325Z,6
2023-05-21T22:48:24.997Z,6
2023-05-21T22:50:25.480Z,4
2023-05-21T22:52:25.176Z,4
2023-05-21T22:54:24.949Z,4
2023-05-21T22:56:25.300Z,6
2023-05-21T22:58:25.072Z,6
2023-05-21T23:00:28.387Z,6
2023-05-21T23:02:24.274Z,6
2023-05-21T23:04:35.820Z,6
2023-05-21T23:06:25.467Z,6
2023-05-21T23:08:25.178Z,7
2023-05-21T23:10:25.654Z,7
2023-05-21T23:12:25.034Z,7
2023-05-21T23:14:24.461Z,5
2023-05-21T23:16:25.534Z,5
2023-05-21T23:18:25.148Z,5
2023-05-21T23:20:25.654Z,6
2023-05-21T23:22:25.067Z,6
2023-05-21T23:24:24.556Z,6
2023-05-21T23:26:25.110Z,4
2023-05-21T23:28:24.638Z,4
2023-05-21T23:30:25.164Z,4
2023-05-21T23:32:24.585Z,9
2023-05-21T23:34:25.168Z,9
2023-05-21T23:36:24.779Z,9
2023-05-21T23:38:25.376Z,4
2023-05-21T23:40:25.191Z,4
2023-05-21T23:42:24.479Z,4
2023-05-21T23:44:25.417Z,3
2023-05-21T23:46:25.474Z,3
2023-05-21T23:48:25.072Z,3
2023-05-21T23:50:25.269Z,6
2023-05-21T23:52:24.786Z,6
2023-05-21T23:54:25.613Z,6
2023-05-21T23:56:24.914Z,4
2023-05-21T23:58:25.426Z,4
